createdAt,value
2018-12-02T00:00:05.652Z,4.64
2018-12-02T00:01:05.643Z,4.61
2018-12-02T00:02:05.632Z,4.58
2018-12-02T00:03:05.646Z,4.67
2018-12-02T00:04:05.624Z,4.65
2018-12-02T00:05:05.610Z,4.62
2018-12-02T00:06:05.593Z,4.58
2018-12-02T00:07:05.591Z,4.57
2018-12-02T00:08:05.568Z,4.52
2018-12-02T00:09:05.571Z,4.61
2018-12-02T00:10:05.545Z,4.57
2018-12-02T00:11:05.534Z,4.44
2018-12-02T00:12:05.532Z,4.52
2018-12-02T00:13:05.515Z,4.50
2018-12-02T00:14:05.519Z,4.55
2018-12-02T00:15:05.539Z,4.54
2018-12-02T00:16:05.481Z,4.46
2018-12-02T00:17:05.472Z,4.55
2018-12-02T00:18:05.466Z,4.55
2018-12-02T00:19:05.472Z,4.52
2018-12-02T00:20:05.441Z,4.61
2018-12-02T00:21:05.427Z,4.61
2018-12-02T00:22:05.418Z,4.67
2018-12-02T00:23:05.409Z,4.65
2018-12-02T00:24:05.414Z,4.59
2018-12-02T00:25:05.385Z,4.75
2018-12-02T00:26:05.381Z,4.83
2018-12-02T00:27:05.381Z,4.75
2018-12-02T00:28:05.360Z,4.84
2018-12-02T00:29:05.362Z,4.84
2018-12-02T00:30:05.331Z,4.84
2018-12-02T00:31:05.322Z,4.84
2018-12-02T00:32:05.318Z,4.80
2018-12-02T00:33:05.299Z,4.69
2018-12-02T00:34:05.300Z,4.83
2018-12-02T00:35:05.277Z,4.62
2018-12-02T00:36:05.269Z,4.67
2018-12-02T00:37:05.258Z,4.75
2018-12-02T00:38:05.251Z,4.69
2018-12-02T00:39:05.273Z,4.72
2018-12-02T00:40:05.226Z,4.67
2018-12-02T00:41:05.216Z,4.64
2018-12-02T00:42:05.202Z,4.61
2018-12-02T00:43:05.194Z,4.55
2018-12-02T00:44:05.181Z,4.54
2018-12-02T00:45:05.183Z,4.50
2018-12-02T00:46:05.161Z,4.58
2018-12-02T00:47:05.149Z,4.44
2018-12-02T00:48:05.139Z,4.52
2018-12-02T00:49:05.127Z,4.40
2018-12-02T00:50:05.133Z,4.44
2018-12-02T00:51:05.109Z,4.37
2018-12-02T00:52:05.095Z,4.43
2018-12-02T00:53:05.093Z,4.40
2018-12-02T00:54:05.080Z,4.37
2018-12-02T00:55:05.094Z,4.43
2018-12-02T00:56:05.055Z,4.43
2018-12-02T00:57:05.050Z,4.34
2018-12-02T00:58:05.034Z,4.43
2018-12-02T00:59:05.023Z,4.39
2018-12-02T01:00:05.010Z,4.36
2018-12-02T01:01:05.016Z,4.42
2018-12-02T01:02:04.988Z,4.32
2018-12-02T01:03:04.976Z,4.43
2018-12-02T01:04:04.968Z,4.28
2018-12-02T01:05:04.957Z,4.29
2018-12-02T01:06:04.961Z,4.40
2018-12-02T01:07:04.935Z,4.33
2018-12-02T01:08:04.924Z,4.29
2018-12-02T01:09:04.914Z,4.29
2018-12-02T01:10:04.901Z,4.40
2018-12-02T01:11:04.907Z,4.42
2018-12-02T01:12:04.883Z,4.33
2018-12-02T01:13:04.871Z,4.43
2018-12-02T01:14:04.861Z,4.42
2018-12-02T01:15:04.849Z,4.34
2018-12-02T01:16:04.850Z,4.42
2018-12-02T01:17:04.829Z,4.26
2018-12-02T01:18:04.819Z,4.26
2018-12-02T01:19:04.828Z,4.22
2018-12-02T01:20:04.874Z,4.39
2018-12-02T01:21:04.806Z,4.22
2018-12-02T01:22:04.778Z,4.43
2018-12-02T01:23:04.765Z,4.29
2018-12-02T01:24:04.754Z,4.43
2018-12-02T01:25:04.744Z,4.42
2018-12-02T01:26:04.745Z,4.43
2018-12-02T01:27:04.722Z,4.39
2018-12-02T01:28:04.718Z,4.42
2018-12-02T01:29:04.701Z,4.37
2018-12-02T01:30:04.687Z,4.42
2018-12-02T01:31:04.689Z,4.42
2018-12-02T01:32:04.681Z,4.33
2018-12-02T01:33:04.656Z,4.42
2018-12-02T01:34:04.644Z,4.34
2018-12-02T01:35:04.634Z,4.32
2018-12-02T01:36:04.636Z,4.39
2018-12-02T01:37:04.616Z,4.44
2018-12-02T01:38:04.603Z,4.34
2018-12-02T01:39:04.591Z,4.46
2018-12-02T01:40:04.584Z,4.40
2018-12-02T01:41:04.583Z,4.43
2018-12-02T01:42:04.560Z,4.39
2018-12-02T01:43:04.548Z,4.51
2018-12-02T01:44:04.538Z,4.50
2018-12-02T01:45:04.534Z,4.52
2018-12-02T01:46:04.536Z,4.47
2018-12-02T01:47:04.506Z,4.51
2018-12-02T01:48:04.495Z,4.50
2018-12-02T01:49:04.485Z,4.50
2018-12-02T01:50:04.496Z,4.46
2018-12-02T01:51:04.477Z,4.50
2018-12-02T01:52:04.498Z,4.44
2018-12-02T01:53:04.441Z,4.47
2018-12-02T01:54:04.435Z,4.50
2018-12-02T01:55:04.428Z,4.39
2018-12-02T01:56:04.446Z,4.44
2018-12-02T01:57:04.405Z,4.46
2018-12-02T01:58:04.397Z,4.51
2018-12-02T01:59:04.382Z,4.54
2018-12-02T02:00:04.392Z,4.46
2018-12-02T02:01:04.361Z,4.55
2018-12-02T02:02:04.358Z,4.50
2018-12-02T02:03:04.334Z,4.51
2018-12-02T02:04:04.330Z,4.47
2018-12-02T02:05:04.313Z,4.54
2018-12-02T02:06:04.306Z,4.47
2018-12-02T02:07:04.306Z,4.43
2018-12-02T02:08:04.282Z,4.51
2018-12-02T02:09:04.285Z,4.46
2018-12-02T02:10:04.260Z,4.51
2018-12-02T02:11:04.250Z,4.46
2018-12-02T02:12:04.272Z,4.46
2018-12-02T02:13:04.258Z,4.43
2018-12-02T02:14:04.225Z,4.50
2018-12-02T02:15:04.228Z,4.55
2018-12-02T02:16:04.198Z,4.51
2018-12-02T02:17:04.185Z,4.58
2018-12-02T02:18:04.194Z,4.54
2018-12-02T02:19:04.165Z,4.58
2018-12-02T02:20:04.167Z,4.61
2018-12-02T02:21:04.143Z,4.59
2018-12-02T02:22:04.185Z,4.46
2018-12-02T02:23:04.131Z,4.59
2018-12-02T02:24:04.110Z,4.59
2018-12-02T02:25:04.103Z,4.65
2018-12-02T02:26:04.090Z,4.61
2018-12-02T02:27:04.081Z,4.58
2018-12-02T02:28:04.081Z,4.64
2018-12-02T02:29:04.056Z,4.58
2018-12-02T02:30:04.047Z,4.70
2018-12-02T02:31:04.038Z,4.75
2018-12-02T02:32:04.031Z,4.75
2018-12-02T02:33:04.028Z,4.80
2018-12-02T02:34:04.004Z,4.72
2018-12-02T02:35:03.994Z,4.83
2018-12-02T02:36:03.987Z,4.83
2018-12-02T02:37:03.975Z,4.77
2018-12-02T02:38:03.973Z,4.79
2018-12-02T02:39:03.960Z,4.80
2018-12-02T02:40:03.939Z,5.04
2018-12-02T02:41:03.928Z,4.92
2018-12-02T02:42:03.917Z,4.99
2018-12-02T02:43:03.923Z,4.99
2018-12-02T02:44:03.895Z,4.99
2018-12-02T02:45:03.884Z,5.02
2018-12-02T02:46:03.874Z,5.01
2018-12-02T02:47:03.865Z,4.91
2018-12-02T02:48:03.865Z,5.01
2018-12-02T02:49:03.842Z,4.91
2018-12-02T02:50:03.832Z,5.04
2018-12-02T02:51:03.838Z,4.83
2018-12-02T02:52:03.810Z,4.72
2018-12-02T02:53:03.825Z,4.79
2018-12-02T02:54:03.790Z,4.59
2018-12-02T02:55:03.784Z,4.61
2018-12-02T02:56:03.769Z,4.64
2018-12-02T02:57:03.757Z,4.54
2018-12-02T02:58:03.758Z,4.47
2018-12-02T02:59:03.736Z,4.47
2018-12-02T03:00:03.725Z,4.51
2018-12-02T03:01:03.734Z,4.42
2018-12-02T03:02:03.703Z,4.42
2018-12-02T03:03:03.733Z,4.42
2018-12-02T03:04:03.680Z,4.42
2018-12-02T03:05:03.724Z,4.50
2018-12-02T03:06:03.660Z,4.37
2018-12-02T03:07:03.649Z,4.42
2018-12-02T03:08:03.639Z,4.54
2018-12-02T03:09:03.640Z,4.40
2018-12-02T03:10:03.656Z,4.44
2018-12-02T03:11:03.604Z,4.44
2018-12-02T03:12:03.593Z,4.43
2018-12-02T03:13:03.584Z,4.50
2018-12-02T03:14:03.587Z,4.50
2018-12-02T03:15:03.569Z,4.47
2018-12-02T03:16:03.554Z,4.44
2018-12-02T03:17:03.543Z,4.39
2018-12-02T03:18:03.531Z,4.52
2018-12-02T03:19:03.537Z,4.50
2018-12-02T03:20:03.512Z,4.54
2018-12-02T03:21:03.496Z,4.43
2018-12-02T03:22:03.489Z,4.42
2018-12-02T03:23:03.476Z,4.50
2018-12-02T03:24:03.482Z,4.52
2018-12-02T03:25:03.469Z,4.50
2018-12-02T03:26:03.445Z,4.54
2018-12-02T03:27:03.437Z,4.57
2018-12-02T03:28:03.424Z,4.47
2018-12-02T03:29:03.425Z,4.46
2018-12-02T03:30:03.408Z,4.55
2018-12-02T03:31:03.394Z,4.62
2018-12-02T03:32:03.395Z,4.57
2018-12-02T03:33:03.373Z,4.62
2018-12-02T03:34:03.390Z,4.69
2018-12-02T03:35:03.358Z,4.61
2018-12-02T03:36:03.347Z,4.65
2018-12-02T03:37:03.330Z,4.75
2018-12-02T03:38:03.320Z,4.75
2018-12-02T03:39:03.307Z,4.88
2018-12-02T03:40:03.313Z,4.94
2018-12-02T03:41:03.287Z,4.77
2018-12-02T03:42:03.286Z,5.01
2018-12-02T03:43:03.266Z,4.94
2018-12-02T03:44:03.263Z,5.02
2018-12-02T03:45:03.256Z,4.98
2018-12-02T03:46:03.233Z,5.04
2018-12-02T03:47:03.220Z,5.05
2018-12-02T03:48:03.244Z,5.04
2018-12-02T03:49:03.201Z,5.09
2018-12-02T03:50:03.200Z,5.04
2018-12-02T03:51:03.188Z,5.13
2018-12-02T03:52:03.168Z,5.12
2018-12-02T03:53:03.164Z,5.04
2018-12-02T03:54:03.150Z,5.07
2018-12-02T03:55:03.168Z,5.02
2018-12-02T03:56:03.130Z,5.09
2018-12-02T03:57:03.115Z,5.12
2018-12-02T03:58:03.104Z,5.07
2018-12-02T03:59:03.095Z,5.12
2018-12-02T04:00:03.086Z,5.10
2018-12-02T04:01:03.082Z,5.09
2018-12-02T04:02:03.059Z,5.17
2018-12-02T04:03:03.050Z,5.20
2018-12-02T04:04:03.038Z,5.22
2018-12-02T04:05:03.037Z,5.23
2018-12-02T04:06:03.028Z,5.22
2018-12-02T04:07:03.006Z,5.17
2018-12-02T04:08:02.995Z,5.16
2018-12-02T04:09:02.987Z,5.16
2018-12-02T04:10:02.975Z,5.22
2018-12-02T04:11:02.984Z,5.20
2018-12-02T04:12:02.954Z,5.17
2018-12-02T04:13:02.943Z,5.17
2018-12-02T04:14:02.934Z,5.16
2018-12-02T04:15:02.934Z,5.19
2018-12-02T04:16:02.928Z,5.20
2018-12-02T04:17:02.913Z,5.19
2018-12-02T04:18:02.891Z,5.12
2018-12-02T04:19:02.884Z,5.14
2018-12-02T04:20:02.866Z,5.19
2018-12-02T04:21:02.872Z,5.22
2018-12-02T04:22:02.848Z,5.25
2018-12-02T04:23:02.839Z,5.20
2018-12-02T04:24:02.823Z,5.23
2018-12-02T04:25:02.815Z,5.20
2018-12-02T04:26:02.824Z,5.28
2018-12-02T04:27:02.793Z,5.28
2018-12-02T04:28:02.786Z,5.30
2018-12-02T04:29:02.771Z,5.31
2018-12-02T04:30:02.760Z,5.30
2018-12-02T04:31:02.769Z,5.31
2018-12-02T04:32:02.741Z,5.31
2018-12-02T04:33:02.731Z,5.37
2018-12-02T04:34:02.728Z,5.30
2018-12-02T04:35:02.710Z,5.35
2018-12-02T04:36:02.707Z,5.41
2018-12-02T04:37:02.684Z,5.43
2018-12-02T04:38:02.673Z,5.46
2018-12-02T04:39:02.666Z,5.45
2018-12-02T04:40:02.663Z,5.37
2018-12-02T04:41:02.652Z,5.28
2018-12-02T04:42:02.636Z,5.20
2018-12-02T04:43:02.620Z,5.16
2018-12-02T04:44:02.619Z,5.09
2018-12-02T04:45:02.601Z,5.04
2018-12-02T04:46:02.601Z,5.05
2018-12-02T04:47:02.584Z,5.07
2018-12-02T04:48:02.568Z,4.96
2018-12-02T04:49:02.557Z,4.94
2018-12-02T04:50:02.547Z,4.73
2018-12-02T04:51:02.550Z,4.76
2018-12-02T04:52:02.523Z,4.72
2018-12-02T04:53:02.516Z,4.73
2018-12-02T04:54:02.509Z,4.62
2018-12-02T04:55:02.505Z,4.69
2018-12-02T04:56:02.495Z,4.75
2018-12-02T04:57:02.476Z,4.67
2018-12-02T04:58:02.460Z,4.59
2018-12-02T04:59:02.450Z,4.59
2018-12-02T05:00:02.437Z,4.62
2018-12-02T05:01:02.461Z,4.58
2018-12-02T05:02:02.419Z,4.65
2018-12-02T05:03:02.415Z,4.51
2018-12-02T05:04:02.450Z,4.61
2018-12-02T05:05:02.387Z,4.59
2018-12-02T05:06:02.374Z,4.61
2018-12-02T05:07:02.378Z,4.54
2018-12-02T05:08:02.355Z,4.61
2018-12-02T05:09:02.349Z,4.50
2018-12-02T05:10:02.333Z,4.62
2018-12-02T05:11:02.327Z,4.57
2018-12-02T05:12:02.353Z,4.62
2018-12-02T05:13:02.299Z,4.55
2018-12-02T05:14:02.290Z,4.58
2018-12-02T05:15:02.290Z,4.58
2018-12-02T05:16:02.267Z,4.57
2018-12-02T05:17:02.257Z,4.51
2018-12-02T05:18:02.257Z,4.51
2018-12-02T05:19:02.237Z,4.50
2018-12-02T05:20:02.229Z,4.51
2018-12-02T05:21:02.213Z,4.50
2018-12-02T05:22:02.202Z,4.52
2018-12-02T05:23:02.214Z,4.39
2018-12-02T05:24:02.182Z,4.52
2018-12-02T05:25:02.172Z,4.50
2018-12-02T05:26:02.161Z,4.50
2018-12-02T05:27:02.160Z,4.40
2018-12-02T05:28:02.152Z,4.47
2018-12-02T05:29:02.129Z,4.37
2018-12-02T05:30:02.119Z,4.50
2018-12-02T05:31:02.108Z,4.40
2018-12-02T05:32:02.097Z,4.50
2018-12-02T05:33:02.106Z,4.57
2018-12-02T05:34:02.076Z,4.50
2018-12-02T05:35:02.069Z,4.50
2018-12-02T05:36:02.055Z,4.52
2018-12-02T05:37:02.046Z,4.57
2018-12-02T05:38:02.046Z,4.47
2018-12-02T05:39:02.029Z,4.47
2018-12-02T05:40:02.014Z,4.57
2018-12-02T05:41:02.001Z,4.62
2018-12-02T05:42:01.994Z,4.59
2018-12-02T05:43:02.002Z,4.64
2018-12-02T05:44:01.969Z,4.59
2018-12-02T05:45:01.957Z,4.57
2018-12-02T05:46:01.947Z,4.57
2018-12-02T05:47:01.939Z,4.62
2018-12-02T05:48:01.938Z,4.58
2018-12-02T05:49:01.917Z,4.72
2018-12-02T05:50:01.901Z,4.72
2018-12-02T05:51:01.892Z,4.65
2018-12-02T05:52:01.883Z,4.62
2018-12-02T05:53:01.884Z,4.58
2018-12-02T05:54:01.860Z,4.73
2018-12-02T05:55:01.851Z,4.65
2018-12-02T05:56:01.842Z,4.58
2018-12-02T05:57:01.854Z,4.69
2018-12-02T05:58:01.836Z,4.59
2018-12-02T05:59:01.807Z,4.72
2018-12-02T06:00:01.796Z,4.72
2018-12-02T06:01:01.787Z,4.76
2018-12-02T06:02:01.774Z,4.59
2018-12-02T06:03:01.774Z,4.77
2018-12-02T06:04:01.756Z,4.72
2018-12-02T06:05:01.748Z,4.86
2018-12-02T06:06:01.735Z,4.80
2018-12-02T06:07:01.726Z,4.91
2018-12-02T06:08:01.744Z,4.91
2018-12-02T06:09:01.703Z,4.94
2018-12-02T06:10:01.691Z,4.98
2018-12-02T06:11:01.680Z,4.96
2018-12-02T06:12:01.673Z,5.13
2018-12-02T06:13:01.658Z,5.07
2018-12-02T06:14:01.657Z,5.04
2018-12-02T06:15:01.638Z,5.04
2018-12-02T06:16:01.627Z,5.14
2018-12-02T06:17:01.615Z,5.13
2018-12-02T06:18:01.608Z,5.14
2018-12-02T06:19:01.611Z,5.07
2018-12-02T06:20:04.702Z,5.10
2018-12-02T06:21:01.574Z,5.10
2018-12-02T06:22:01.564Z,5.14
2018-12-02T06:23:01.555Z,5.10
2018-12-02T06:24:01.578Z,5.23
2018-12-02T06:25:01.530Z,5.12
2018-12-02T06:26:02.117Z,5.17
2018-12-02T06:27:01.510Z,5.20
2018-12-02T06:28:01.500Z,5.19
2018-12-02T06:29:01.490Z,5.23
2018-12-02T06:30:01.488Z,5.20
2018-12-02T06:31:01.479Z,5.23
2018-12-02T06:32:01.454Z,5.25
2018-12-02T06:33:01.443Z,5.22
2018-12-02T06:34:01.433Z,5.35
2018-12-02T06:35:01.434Z,5.32
2018-12-02T06:36:01.412Z,5.43
2018-12-02T06:37:01.403Z,5.50
2018-12-02T06:38:01.389Z,5.46
2018-12-02T06:39:01.381Z,5.45
2018-12-02T06:40:01.384Z,5.55
2018-12-02T06:41:01.362Z,5.57
2018-12-02T06:42:01.351Z,5.59
2018-12-02T06:43:01.338Z,5.56
2018-12-02T06:44:01.328Z,5.52
2018-12-02T06:45:01.332Z,5.56
2018-12-02T06:46:01.347Z,5.53
2018-12-02T06:47:01.297Z,5.63
2018-12-02T06:48:01.286Z,5.60
2018-12-02T06:49:01.274Z,5.64
2018-12-02T06:50:01.295Z,5.57
2018-12-02T06:51:01.252Z,5.59
2018-12-02T06:52:01.242Z,5.60
2018-12-02T06:53:01.239Z,5.57
2018-12-02T06:54:01.279Z,5.67
2018-12-02T06:55:01.264Z,5.70
2018-12-02T06:56:01.211Z,5.71
2018-12-02T06:57:01.190Z,5.75
2018-12-02T06:58:01.179Z,5.60
2018-12-02T06:59:01.169Z,5.73
2018-12-02T07:00:01.174Z,5.68
2018-12-02T07:01:01.160Z,5.67
2018-12-02T07:02:01.136Z,5.67
2018-12-02T07:03:01.126Z,5.73
2018-12-02T07:04:01.115Z,5.67
2018-12-02T07:05:01.102Z,5.81
2018-12-02T07:06:01.115Z,5.77
2018-12-02T07:07:01.083Z,5.82
2018-12-02T07:08:01.072Z,5.74
2018-12-02T07:09:01.063Z,5.68
2018-12-02T07:10:01.057Z,5.83
2018-12-02T07:11:01.051Z,5.74
2018-12-02T07:12:01.029Z,5.73
2018-12-02T07:13:01.022Z,5.71
2018-12-02T07:14:01.008Z,5.70
2018-12-02T07:15:01.000Z,5.71
2018-12-02T07:16:01.010Z,5.73
2018-12-02T07:17:00.983Z,5.74
2018-12-02T07:18:00.985Z,5.63
2018-12-02T07:19:00.953Z,5.73
2018-12-02T07:20:00.945Z,5.70
2018-12-02T07:21:00.953Z,5.77
2018-12-02T07:22:00.924Z,5.78
2018-12-02T07:23:00.923Z,5.77
2018-12-02T07:24:00.922Z,5.81
2018-12-02T07:25:00.891Z,5.77
2018-12-02T07:26:00.892Z,5.71
2018-12-02T07:27:00.870Z,5.77
2018-12-02T07:28:00.861Z,5.81
2018-12-02T07:29:00.850Z,5.74
2018-12-02T07:30:00.836Z,5.81
2018-12-02T07:31:00.857Z,5.81
2018-12-02T07:32:00.817Z,5.83
2018-12-02T07:33:00.806Z,5.78
2018-12-02T07:34:00.796Z,5.83
2018-12-02T07:35:00.785Z,5.85
2018-12-02T07:36:00.773Z,5.86
2018-12-02T07:37:00.776Z,5.83
2018-12-02T07:38:00.773Z,5.85
2018-12-02T07:39:00.746Z,5.82
2018-12-02T07:40:00.731Z,5.82
2018-12-02T07:41:00.727Z,5.83
2018-12-02T07:42:00.735Z,5.83
2018-12-02T07:43:00.699Z,5.77
2018-12-02T07:44:00.690Z,5.74
2018-12-02T07:45:00.691Z,5.82
2018-12-02T07:46:00.670Z,5.70
2018-12-02T07:47:00.675Z,5.74
2018-12-02T07:48:00.647Z,5.74
2018-12-02T07:49:00.750Z,5.73
2018-12-02T07:50:00.625Z,5.66
2018-12-02T07:51:00.614Z,5.77
2018-12-02T07:52:00.620Z,5.67
2018-12-02T07:53:00.594Z,5.67
2018-12-02T07:54:00.586Z,5.66
2018-12-02T07:55:00.572Z,5.67
2018-12-02T07:56:00.563Z,5.73
2018-12-02T07:57:00.562Z,5.71
2018-12-02T07:58:00.544Z,5.60
2018-12-02T07:59:00.534Z,5.66
2018-12-02T08:00:00.518Z,5.73
2018-12-02T08:01:00.509Z,5.71
2018-12-02T08:02:00.530Z,5.81
2018-12-02T08:03:00.486Z,5.68
2018-12-02T08:04:00.484Z,5.66
2018-12-02T08:05:00.469Z,5.75
2018-12-02T08:06:00.459Z,5.75
2018-12-02T08:07:00.445Z,5.66
2018-12-02T08:08:00.445Z,5.71
2018-12-02T08:09:00.423Z,5.68
2018-12-02T08:10:00.427Z,5.60
2018-12-02T08:11:00.415Z,5.67
2018-12-02T08:12:00.393Z,5.66
2018-12-02T08:13:00.393Z,5.74
2018-12-02T08:14:00.377Z,5.67
2018-12-02T08:15:00.362Z,5.63
2018-12-02T08:16:00.346Z,5.73
2018-12-02T08:17:00.336Z,5.73
2018-12-02T08:18:00.338Z,5.67
2018-12-02T08:19:00.314Z,5.71
2018-12-02T08:20:00.391Z,5.81
2018-12-02T08:21:00.295Z,5.67
2018-12-02T08:22:00.397Z,5.74
2018-12-02T08:23:00.657Z,5.71
2018-12-02T08:24:00.270Z,5.74
2018-12-02T08:25:00.254Z,5.68
2018-12-02T08:26:00.251Z,5.75
2018-12-02T08:27:00.238Z,5.78
2018-12-02T08:28:00.280Z,5.68
2018-12-02T08:29:00.209Z,5.75
2018-12-02T08:30:00.196Z,5.77
2018-12-02T08:31:00.187Z,5.68
2018-12-02T08:32:00.177Z,5.75
2018-12-02T08:33:00.215Z,5.71
2018-12-02T08:34:00.197Z,5.77
2018-12-02T08:35:00.144Z,5.83
2018-12-02T08:36:00.137Z,5.91
2018-12-02T08:37:00.124Z,5.96
2018-12-02T08:38:00.112Z,5.86
2018-12-02T08:39:00.111Z,5.91
2018-12-02T08:40:00.090Z,5.95
2018-12-02T08:41:00.081Z,5.92
2018-12-02T08:42:00.070Z,5.93
2018-12-02T08:43:00.061Z,6.06
2018-12-02T08:44:00.060Z,6.06
2018-12-02T08:45:00.040Z,6.13
2018-12-02T08:46:00.041Z,6.06
2018-12-02T08:47:00.019Z,6.10
2018-12-02T08:48:00.011Z,6.11
2018-12-02T08:49:01.126Z,6.11
2018-12-02T08:49:59.990Z,6.11
2018-12-02T08:50:59.989Z,6.16
2018-12-02T08:52:00.030Z,6.19
2018-12-02T08:52:59.959Z,6.26
2018-12-02T08:53:59.952Z,6.22
2018-12-02T08:54:59.948Z,6.26
2018-12-02T08:55:59.962Z,6.19
2018-12-02T08:56:59.931Z,6.21
2018-12-02T08:57:59.899Z,6.18
2018-12-02T08:58:59.956Z,6.16
2018-12-02T08:59:59.912Z,6.14
2018-12-02T09:00:59.904Z,6.29
2018-12-02T09:01:59.863Z,6.19
2018-12-02T09:02:59.850Z,6.29
2018-12-02T09:03:59.872Z,6.28
2018-12-02T09:04:59.855Z,6.29
2018-12-02T09:05:59.844Z,6.29
2018-12-02T09:06:59.841Z,6.26
2018-12-02T09:07:59.806Z,6.29
2018-12-02T09:08:59.785Z,6.35
2018-12-02T09:09:59.815Z,6.35
2018-12-02T09:10:59.777Z,6.41
2018-12-02T09:11:59.754Z,6.50
2018-12-02T09:12:59.742Z,6.51
2018-12-02T09:13:59.745Z,6.54
2018-12-02T09:14:59.730Z,6.58
2018-12-02T09:15:59.710Z,6.59
2018-12-02T09:17:00.818Z,6.62
2018-12-02T09:17:59.690Z,6.62
2018-12-02T09:18:59.683Z,6.71
2018-12-02T09:19:59.684Z,6.66
2018-12-02T09:20:59.656Z,6.68
2018-12-02T09:21:59.644Z,6.68
2018-12-02T09:22:59.633Z,6.72
2018-12-02T09:23:59.705Z,6.71
2018-12-02T09:24:59.649Z,6.83
2018-12-02T09:25:59.600Z,6.68
2018-12-02T09:26:59.592Z,6.71
2018-12-02T09:27:59.585Z,6.71
2018-12-02T09:28:59.611Z,6.81
2018-12-02T09:29:59.558Z,6.80
2018-12-02T09:30:59.596Z,6.79
2018-12-02T09:31:59.537Z,6.83
2018-12-02T09:32:59.526Z,6.80
2018-12-02T09:33:59.516Z,6.83
2018-12-02T09:34:59.504Z,6.83
2018-12-02T09:35:59.507Z,6.87
2018-12-02T09:36:59.492Z,6.86
2018-12-02T09:37:59.471Z,6.86
2018-12-02T09:38:59.464Z,6.83
2018-12-02T09:39:59.448Z,6.87
2018-12-02T09:40:59.657Z,6.90
2018-12-02T09:41:59.432Z,6.79
2018-12-02T09:42:59.432Z,6.87
2018-12-02T09:43:59.406Z,6.84
2018-12-02T09:44:59.395Z,6.83
2018-12-02T09:45:59.413Z,6.89
2018-12-02T09:46:59.388Z,6.91
2018-12-02T09:47:59.364Z,6.90
2018-12-02T09:48:59.351Z,6.91
2018-12-02T09:49:59.346Z,6.97
2018-12-02T09:50:59.343Z,7.01
2018-12-02T09:51:59.324Z,6.97
2018-12-02T09:52:59.309Z,7.02
2018-12-02T09:53:59.298Z,7.07
2018-12-02T09:54:59.285Z,7.04
2018-12-02T09:55:59.286Z,7.08
2018-12-02T09:56:59.264Z,7.07
2018-12-02T09:57:59.259Z,7.09
2018-12-02T09:58:59.278Z,7.08
2018-12-02T09:59:59.241Z,7.15
2018-12-02T10:00:59.245Z,7.08
2018-12-02T10:01:59.214Z,7.16
2018-12-02T10:02:59.207Z,7.04
2018-12-02T10:03:59.212Z,7.05
2018-12-02T10:04:59.183Z,7.17
2018-12-02T10:05:59.202Z,7.16
2018-12-02T10:06:59.159Z,7.22
2018-12-02T10:07:59.151Z,7.17
2018-12-02T10:08:59.638Z,7.20
2018-12-02T10:09:59.205Z,7.22
2018-12-02T10:10:59.152Z,7.19
2018-12-02T10:11:59.103Z,7.20
2018-12-02T10:12:59.093Z,7.29
2018-12-02T10:13:59.081Z,7.32
2018-12-02T10:14:59.086Z,7.32
2018-12-02T10:15:59.060Z,7.37
2018-12-02T10:16:59.061Z,7.41
2018-12-02T10:17:59.046Z,7.37
2018-12-02T10:18:59.027Z,7.49
2018-12-02T10:19:59.014Z,7.41
2018-12-02T10:20:59.007Z,7.42
2018-12-02T10:21:59.195Z,7.55
2018-12-02T10:22:58.991Z,7.62
2018-12-02T10:23:58.973Z,7.59
2018-12-02T10:24:58.959Z,7.60
2018-12-02T10:25:58.953Z,7.60
2018-12-02T10:26:59.184Z,7.55
2018-12-02T10:27:58.933Z,7.62
2018-12-02T10:28:58.931Z,7.74
2018-12-02T10:29:58.909Z,7.67
2018-12-02T10:30:58.896Z,7.72
2018-12-02T10:31:58.903Z,7.78
2018-12-02T10:32:58.875Z,7.85
2018-12-02T10:33:58.864Z,7.92
2018-12-02T10:34:58.854Z,7.93
2018-12-02T10:35:58.841Z,7.93
2018-12-02T10:36:58.868Z,7.87
2018-12-02T10:37:58.841Z,8.02
2018-12-02T10:38:58.813Z,7.93
2018-12-02T10:39:58.798Z,7.90
2018-12-02T10:40:58.791Z,7.97
2018-12-02T10:41:58.780Z,7.96
2018-12-02T10:42:59.177Z,7.96
2018-12-02T10:43:58.759Z,7.87
2018-12-02T10:44:58.749Z,7.99
2018-12-02T10:45:58.745Z,7.97
2018-12-02T10:46:58.726Z,7.94
2018-12-02T10:47:59.195Z,7.96
2018-12-02T10:48:58.706Z,7.96
2018-12-02T10:49:58.710Z,7.97
2018-12-02T10:50:58.683Z,7.96
2018-12-02T10:51:58.688Z,8.07
2018-12-02T10:52:58.672Z,7.94
2018-12-02T10:53:58.651Z,7.93
2018-12-02T10:54:58.641Z,7.97
2018-12-02T10:55:58.638Z,8.07
2018-12-02T10:56:58.619Z,7.97
2018-12-02T10:57:58.617Z,8.00
2018-12-02T10:58:58.598Z,7.94
2018-12-02T10:59:58.592Z,7.97
2018-12-02T11:00:58.577Z,8.00
2018-12-02T11:01:58.570Z,8.03
2018-12-02T11:02:58.565Z,7.94
2018-12-02T11:03:58.552Z,8.04
2018-12-02T11:04:58.537Z,7.99
2018-12-02T11:05:58.546Z,7.97
2018-12-02T11:06:58.513Z,7.96
2018-12-02T11:07:58.512Z,8.04
2018-12-02T11:08:58.489Z,7.97
2018-12-02T11:09:58.481Z,7.97
2018-12-02T11:10:58.478Z,8.07
2018-12-02T11:11:58.469Z,8.02
2018-12-02T11:12:58.475Z,8.03
2018-12-02T11:13:58.436Z,8.10
2018-12-02T11:14:58.429Z,8.07
2018-12-02T11:15:58.428Z,8.07
2018-12-02T11:16:58.406Z,8.03
2018-12-02T11:17:58.407Z,8.03
2018-12-02T11:18:58.388Z,8.02
2018-12-02T11:19:58.382Z,8.07
2018-12-02T11:20:59.148Z,8.15
2018-12-02T11:21:58.350Z,8.21
2018-12-02T11:22:58.359Z,8.14
2018-12-02T11:23:58.341Z,8.20
2018-12-02T11:24:58.325Z,8.20
2018-12-02T11:25:58.323Z,8.22
2018-12-02T11:26:58.300Z,8.33
2018-12-02T11:27:58.292Z,8.36
2018-12-02T11:28:58.290Z,8.29
2018-12-02T11:29:58.266Z,8.36
2018-12-02T11:30:58.265Z,8.32
2018-12-02T11:31:58.359Z,8.32
2018-12-02T11:32:58.242Z,8.32
2018-12-02T11:33:58.257Z,8.32
2018-12-02T11:34:58.272Z,8.32
2018-12-02T11:35:59.268Z,8.36
2018-12-02T11:36:59.133Z,8.33
2018-12-02T11:38:01.235Z,8.35
2018-12-02T11:38:58.769Z,8.33
2018-12-02T11:39:58.160Z,8.39
2018-12-02T11:40:59.153Z,8.39
2018-12-02T11:41:58.157Z,8.35
2018-12-02T11:42:58.279Z,8.35
2018-12-02T11:43:58.373Z,8.36
2018-12-02T11:45:00.714Z,8.33
2018-12-02T11:45:58.714Z,8.28
2018-12-02T11:46:58.096Z,8.35
2018-12-02T11:48:00.124Z,8.36
2018-12-02T11:48:58.084Z,8.39
2018-12-02T11:49:58.055Z,8.36
2018-12-02T11:50:58.081Z,8.37
2018-12-02T11:51:58.032Z,8.35
2018-12-02T11:52:58.024Z,8.40
2018-12-02T11:53:58.050Z,8.36
2018-12-02T11:54:58.002Z,8.39
2018-12-02T11:55:58.003Z,8.35
2018-12-02T11:56:57.979Z,8.35
2018-12-02T11:57:57.988Z,8.40
2018-12-02T11:58:58.660Z,8.37
2018-12-02T11:59:57.988Z,8.36
2018-12-02T12:00:57.957Z,8.36
2018-12-02T12:01:57.960Z,8.30
2018-12-02T12:02:57.921Z,8.32
2018-12-02T12:03:57.907Z,8.48
2018-12-02T12:04:57.917Z,8.40
2018-12-02T12:05:57.884Z,8.36
2018-12-02T12:06:57.887Z,8.40
2018-12-02T12:07:57.864Z,8.39
2018-12-02T12:08:57.850Z,8.47
2018-12-02T12:09:57.901Z,8.42
2018-12-02T12:10:57.832Z,8.37
2018-12-02T12:11:57.821Z,8.45
2018-12-02T12:12:57.828Z,8.35
2018-12-02T12:13:57.808Z,8.44
2018-12-02T12:14:57.804Z,8.37
2018-12-02T12:15:57.777Z,8.39
2018-12-02T12:16:57.769Z,8.35
2018-12-02T12:17:57.759Z,8.39
2018-12-02T12:18:57.746Z,8.36
2018-12-02T12:19:57.792Z,8.40
2018-12-02T12:20:57.754Z,8.36
2018-12-02T12:21:57.712Z,8.37
2018-12-02T12:22:57.712Z,8.44
2018-12-02T12:23:57.691Z,8.36
2018-12-02T12:24:57.706Z,8.32
2018-12-02T12:25:57.719Z,8.35
2018-12-02T12:26:57.663Z,8.39
2018-12-02T12:27:57.649Z,8.37
2018-12-02T12:28:57.666Z,8.36
2018-12-02T12:29:57.643Z,8.33
2018-12-02T12:30:57.626Z,8.36
2018-12-02T12:31:57.656Z,8.33
2018-12-02T12:32:57.610Z,8.25
2018-12-02T12:33:57.591Z,8.32
2018-12-02T12:34:57.575Z,8.32
2018-12-02T12:35:57.583Z,8.33
2018-12-02T12:36:57.581Z,8.32
2018-12-02T12:37:57.570Z,8.30
2018-12-02T12:38:57.544Z,8.22
2018-12-02T12:39:57.547Z,8.25
2018-12-02T12:40:57.553Z,8.21
2018-12-02T12:41:57.508Z,8.28
2018-12-02T12:42:57.494Z,8.25
2018-12-02T12:43:57.482Z,8.22
2018-12-02T12:44:57.469Z,8.18
2018-12-02T12:45:57.524Z,8.17
2018-12-02T12:46:57.448Z,8.20
2018-12-02T12:47:57.448Z,8.12
2018-12-02T12:48:57.441Z,8.14
2018-12-02T12:49:57.445Z,8.18
2018-12-02T12:50:57.428Z,8.14
2018-12-02T12:51:57.407Z,8.03
2018-12-02T12:52:57.405Z,8.07
2018-12-02T12:53:57.382Z,8.03
2018-12-02T12:54:57.369Z,8.04
2018-12-02T12:55:57.387Z,8.03
2018-12-02T12:56:57.344Z,8.03
2018-12-02T12:57:57.335Z,8.00
2018-12-02T12:58:57.327Z,8.07
2018-12-02T12:59:57.326Z,8.03
2018-12-02T13:00:57.323Z,8.00
2018-12-02T13:01:57.303Z,7.96
2018-12-02T13:02:57.279Z,7.97
2018-12-02T13:03:57.267Z,7.96
2018-12-02T13:04:57.259Z,8.02
2018-12-02T13:05:57.258Z,8.02
2018-12-02T13:06:57.234Z,7.97
2018-12-02T13:07:57.224Z,7.87
2018-12-02T13:08:57.222Z,7.89
2018-12-02T13:09:57.204Z,7.93
2018-12-02T13:10:57.225Z,7.92
2018-12-02T13:11:57.197Z,8.03
2018-12-02T13:12:57.182Z,7.90
2018-12-02T13:13:57.165Z,7.90
2018-12-02T13:14:57.159Z,7.93
2018-12-02T13:15:57.183Z,7.99
2018-12-02T13:16:57.131Z,8.00
2018-12-02T13:17:57.125Z,7.97